Time;durP1;ratioP1;P1;durP2;ratioP2;P2;SDS_P1;SDS_P2;PMS_P1;PMS_P2;Temp;Humidity;BMP_temperature;BMP_pressure;BME280_temperature;BME280_humidity;BME280_pressure;Samples;Min_cycle;Max_cycle;Signal;HPM_P1;HPM_P2
2021/11/22 00:01:37;;;;;;;36.75;15.18;;;;;;;3.78;85.09;95918.72;5127130;28;20050;-73
2021/11/22 00:04:03;;;;;;;34.85;14.50;;;;;;;3.73;85.38;95916.06;5127825;28;20047;-72
2021/11/22 00:06:30;;;;;;;38.22;15.70;;;;;;;3.71;85.82;95918.25;5127303;28;20047;-73
2021/11/22 00:08:56;;;;;;;38.28;15.73;;;;;;;3.64;85.86;95917.78;5127861;28;20039;-73
2021/11/22 00:11:23;;;;;;;34.65;15.85;;;;;;;3.59;86.19;95918.63;5126669;28;20653;-73
2021/11/22 00:13:50;;;;;;;33.05;15.20;;;;;;;3.53;86.72;95927.03;5127467;28;20070;-73
2021/11/22 00:16:17;;;;;;;35.65;16.15;;;;;;;3.53;87.28;95929.72;5127473;28;20073;-73
2021/11/22 00:18:44;;;;;;;38.58;16.60;;;;;;;3.50;87.38;95939.19;5127088;28;20718;-73
2021/11/22 00:21:11;;;;;;;35.95;16.05;;;;;;;3.48;87.61;95922.50;5127236;28;20532;-73
2021/11/22 00:23:37;;;;;;;33.72;14.60;;;;;;;3.47;87.79;95933.56;5126857;28;20069;-73
2021/11/22 00:26:04;;;;;;;34.42;15.02;;;;;;;3.49;88.23;95931.38;5127742;28;20043;-73
2021/11/22 00:28:30;;;;;;;35.42;15.65;;;;;;;3.55;87.99;95931.06;5126844;28;20047;-72
2021/11/22 00:30:58;;;;;;;37.47;16.08;;;;;;;3.56;87.96;95926.47;5128280;28;20526;-73
2021/11/22 00:33:26;;;;;;;40.08;17.02;;;;;;;3.64;87.75;95928.53;5127291;28;20077;-72
2021/11/22 00:35:53;;;;;;;36.72;15.85;;;;;;;3.66;87.55;95926.38;5129790;27;20051;-72
2021/11/22 00:38:19;;;;;;;43.58;17.45;;;;;;;3.68;87.47;95918.81;5130657;27;20100;-72
2021/11/22 00:40:46;;;;;;;38.22;16.55;;;;;;;3.69;87.12;95920.41;5131112;27;20070;-73
2021/11/22 00:43:12;;;;;;;41.85;17.48;;;;;;;3.68;87.14;95929.59;5130652;27;20725;-72
2021/11/22 00:45:39;;;;;;;40.70;17.02;;;;;;;3.75;87.45;95930.03;5131858;27;20050;-72
2021/11/22 00:48:09;;;;;;;37.08;16.65;;;;;;;3.81;87.18;95939.69;5131328;27;20053;-72
2021/11/22 00:50:35;;;;;;;37.38;15.27;;;;;;;3.81;86.69;95936.19;5130237;27;20054;-73
2021/11/22 00:53:02;;;;;;;38.42;16.58;;;;;;;3.83;86.97;95945.59;5130603;27;20264;-72
2021/11/22 00:55:28;;;;;;;37.60;17.13;;;;;;;3.87;86.60;95941.25;5130852;27;20046;-72
2021/11/22 00:57:55;;;;;;;39.30;16.80;;;;;;;3.92;86.57;95943.91;5130894;27;20537;-73
2021/11/22 01:00:23;;;;;;;34.72;16.58;;;;;;;3.96;85.70;95940.63;5130327;27;20722;-72
2021/11/22 01:02:50;;;;;;;36.38;16.58;;;;;;;3.93;85.55;95948.19;5130287;27;20039;-72
2021/11/22 01:05:17;;;;;;;37.13;16.48;;;;;;;3.90;85.86;95946.06;5130543;27;20039;-72
2021/11/22 01:07:44;;;;;;;34.17;15.63;;;;;;;3.93;85.98;95952.78;5130147;27;20046;-73
2021/11/22 01:10:13;;;;;;;35.72;15.85;;;;;;;3.92;86.01;95951.97;5131212;27;20043;-73
2021/11/22 01:12:40;;;;;;;35.22;16.75;;;;;;;3.91;86.04;95950.38;5129719;27;20043;-73
2021/11/22 01:15:10;;;;;;;33.97;15.73;;;;;;;3.96;86.01;95954.09;5131186;27;20051;-73
2021/11/22 01:17:36;;;;;;;38.33;16.63;;;;;;;4.00;86.03;95964.00;5130000;27;20043;-73
2021/11/22 01:20:04;;;;;;;40.88;16.10;;;;;;;3.99;86.17;95961.59;5130793;27;20058;-73
2021/11/22 01:22:32;;;;;;;36.15;16.92;;;;;;;3.92;86.04;95960.06;5130093;27;20050;-72
2021/11/22 01:24:59;;;;;;;38.45;17.48;;;;;;;3.89;86.19;95979.47;5131060;27;20066;-73
2021/11/22 01:27:25;;;;;;;42.15;17.10;;;;;;;3.86;86.44;95969.28;5130333;27;20050;-73
2021/11/22 01:29:52;;;;;;;36.58;16.67;;;;;;;3.89;86.58;95968.69;5130270;27;20054;-73
2021/11/22 01:32:18;;;;;;;39.72;17.77;;;;;;;3.89;86.61;95963.31;5130082;27;20074;-72
2021/11/22 01:34:45;;;;;;;41.65;17.95;;;;;;;3.87;86.94;95970.88;5130732;27;20039;-73
2021/11/22 01:37:11;;;;;;;40.83;17.95;;;;;;;3.84;86.69;95971.44;5128992;27;20054;-72
2021/11/22 01:39:39;;;;;;;42.83;17.40;;;;;;;3.86;87.00;95971.97;5129306;27;20051;-73
2021/11/22 01:42:07;;;;;;;43.50;17.83;;;;;;;3.84;87.18;95971.44;5129741;27;20050;-72
2021/11/22 01:44:33;;;;;;;41.63;17.83;;;;;;;3.82;87.25;95962.84;5130014;27;20146;-73
2021/11/22 01:47:00;;;;;;;39.83;17.33;;;;;;;3.83;87.16;95961.75;5128993;27;20455;-73
2021/11/22 01:49:26;;;;;;;43.17;17.15;;;;;;;3.83;87.34;95961.75;5129778;27;20050;-73
2021/11/22 01:51:53;;;;;;;49.20;19.52;;;;;;;3.88;87.16;95959.00;5129220;27;20051;-73
2021/11/22 01:54:19;;;;;;;45.25;17.80;;;;;;;3.93;87.10;95964.34;5130374;27;20054;-73
2021/11/22 01:56:47;;;;;;;44.40;18.30;;;;;;;4.00;87.00;95968.59;5129196;27;20043;-72
2021/11/22 01:59:15;;;;;;;45.38;18.13;;;;;;;4.04;86.99;95972.34;5130031;27;20077;-73
2021/11/22 02:01:42;;;;;;;42.58;16.88;;;;;;;4.07;87.11;95974.44;5128955;27;20139;-73
2021/11/22 02:04:08;;;;;;;42.58;17.52;;;;;;;4.06;86.94;95975.53;5129547;27;20046;-73
2021/11/22 02:06:35;;;;;;;44.25;16.88;;;;;;;4.06;87.01;95973.63;5129267;27;20075;-73
2021/11/22 02:09:04;;;;;;;40.53;17.13;;;;;;;4.06;86.77;95978.22;5129325;27;20533;-71
2021/11/22 02:11:31;;;;;;;42.80;17.30;;;;;;;4.02;86.86;95974.50;5129341;27;20043;-74
2021/11/22 02:13:59;;;;;;;44.03;18.48;;;;;;;4.01;86.92;95970.19;5129707;27;20051;-73
2021/11/22 02:16:26;;;;;;;39.28;17.58;;;;;;;4.02;87.00;95961.03;5129251;27;20054;-73
2021/11/22 02:18:55;;;;;;;44.45;18.25;;;;;;;4.02;86.64;95963.72;5128827;27;20043;-73
2021/11/22 02:21:23;;;;;;;42.72;17.70;;;;;;;4.07;86.71;95969.03;5129203;27;25003;-72
2021/11/22 02:23:50;;;;;;;40.35;17.45;;;;;;;4.12;86.42;95969.00;5128789;27;20662;-72
2021/11/22 02:26:16;;;;;;;42.05;17.98;;;;;;;4.12;86.22;95969.00;5129358;27;20050;-72
2021/11/22 02:28:43;;;;;;;42.10;18.00;;;;;;;4.16;86.06;95972.72;5128833;27;20055;-73
2021/11/22 02:31:09;;;;;;;37.85;16.83;;;;;;;4.18;86.06;95968.69;5129077;27;20058;-73
2021/11/22 02:33:36;;;;;;;42.60;16.88;;;;;;;4.23;85.67;95972.38;5128893;27;20054;-72
2021/11/22 02:36:03;;;;;;;41.20;17.05;;;;;;;4.22;85.59;95976.97;5128517;27;20047;-72
2021/11/22 02:38:34;;;;;;;38.30;16.85;;;;;;;4.21;85.79;95980.75;5128999;27;20047;-73
2021/11/22 02:41:02;;;;;;;39.75;17.23;;;;;;;4.20;85.88;95984.56;5128358;27;20051;-73
2021/11/22 02:43:31;;;;;;;39.88;16.98;;;;;;;4.22;86.48;95985.06;5129335;27;20046;-73
2021/11/22 02:45:58;;;;;;;34.88;17.05;;;;;;;4.24;86.36;95990.97;5128384;27;20059;-73
2021/11/22 02:48:25;;;;;;;35.65;16.02;;;;;;;4.20;86.10;95984.56;5128804;27;20039;-73
2021/11/22 02:50:52;;;;;;;38.83;16.75;;;;;;;4.22;86.28;95986.94;5128480;27;20039;-73
2021/11/22 02:53:18;;;;;;;39.58;16.52;;;;;;;4.26;86.27;95986.09;5128423;27;20379;-74
2021/11/22 02:55:47;;;;;;;34.50;15.80;;;;;;;4.28;85.47;95985.81;5128687;27;20043;-72
2021/11/22 02:58:14;;;;;;;38.85;15.88;;;;;;;4.26;85.26;95988.00;5128001;27;20088;-73
2021/11/22 03:00:41;;;;;;;35.28;16.20;;;;;;;4.27;85.03;95989.59;5128717;27;20054;-72
2021/11/22 03:03:07;;;;;;;37.53;15.05;;;;;;;4.27;84.94;95992.28;5127758;27;20051;-73
2021/11/22 03:05:34;;;;;;;33.47;15.77;;;;;;;4.28;85.09;95992.03;5128930;27;20054;-72
2021/11/22 03:08:00;;;;;;;37.55;15.93;;;;;;;4.26;84.76;95991.50;5128875;27;20050;-73
2021/11/22 03:10:29;;;;;;;39.92;16.55;;;;;;;4.29;85.07;95992.81;5129001;27;20039;-72
2021/11/22 03:12:59;;;;;;;35.85;15.50;;;;;;;4.32;84.88;95998.41;5127715;27;20129;-73
2021/11/22 03:15:26;;;;;;;35.78;16.55;;;;;;;4.29;85.06;96003.59;5128274;27;20047;-73
2021/11/22 03:17:53;;;;;;;33.97;16.00;;;;;;;4.26;84.93;95999.56;5128064;27;20043;-73
2021/11/22 03:20:21;;;;;;;39.13;15.75;;;;;;;4.29;85.16;96007.09;5128151;27;20043;-72
2021/11/22 03:22:49;;;;;;;35.80;16.33;;;;;;;4.31;85.00;96001.41;5128252;27;20050;-73
2021/11/22 03:25:16;;;;;;;35.85;16.08;;;;;;;4.29;84.80;96009.78;5127870;27;20074;-73
2021/11/22 03:27:43;;;;;;;37.13;15.80;;;;;;;4.27;85.06;96005.75;5128329;27;20104;-73
2021/11/22 03:30:12;;;;;;;41.22;17.55;;;;;;;4.27;85.06;96011.16;5127129;27;20047;-73
2021/11/22 03:32:39;;;;;;;36.30;17.25;;;;;;;4.27;85.19;96011.94;5128706;27;20387;-72
2021/11/22 03:35:07;;;;;;;34.60;14.77;;;;;;;4.30;85.39;96011.41;5127181;27;20054;-73
2021/11/22 03:37:34;;;;;;;37.33;16.75;;;;;;;4.36;85.39;96021.03;5128628;27;20547;-72
2021/11/22 03:40:01;;;;;;;38.97;16.35;;;;;;;4.36;85.38;96015.63;5125359;27;20046;-73
2021/11/22 03:42:36;;;;;;;36.40;16.63;;;;;;;4.37;85.30;96016.44;5127614;27;20088;-73
2021/11/22 03:45:04;;;;;;;38.17;16.42;;;;;;;4.35;85.45;96022.13;5127526;27;20498;-72
2021/11/22 03:47:32;;;;;;;39.72;17.23;;;;;;;4.38;85.51;96031.50;5127637;28;20111;-73
2021/11/22 03:49:59;;;;;;;39.42;17.52;;;;;;;4.40;85.61;96032.84;5128166;28;20062;-73
2021/11/22 03:52:25;;;;;;;40.28;17.25;;;;;;;4.40;85.73;96032.84;5126566;28;20497;-73
2021/11/22 03:54:52;;;;;;;37.30;17.08;;;;;;;4.40;85.74;96042.84;5128677;28;20066;-73
2021/11/22 03:57:18;;;;;;;35.53;16.73;;;;;;;4.42;85.45;96046.84;5127027;28;20071;-73
2021/11/22 03:59:46;;;;;;;33.53;15.30;;;;;;;4.44;84.76;96049.28;5128344;28;20051;-73
2021/11/22 04:02:13;;;;;;;36.15;17.05;;;;;;;4.38;84.56;96053.88;5126871;28;20047;-73
2021/11/22 04:04:40;;;;;;;35.35;15.57;;;;;;;4.37;84.70;96052.28;5127957;28;20070;-73
2021/11/22 04:07:07;;;;;;;37.40;16.50;;;;;;;4.40;84.97;96042.84;5127289;28;20051;-71
2021/11/22 04:09:35;;;;;;;36.72;17.08;;;;;;;4.41;84.88;96050.63;5127449;27;20051;-73
2021/11/22 04:12:01;;;;;;;36.33;16.73;;;;;;;4.40;85.15;96049.03;5131062;27;20043;-70
2021/11/22 04:14:28;;;;;;;41.40;17.48;;;;;;;4.40;84.94;96051.72;5131575;27;20043;-73
2021/11/22 04:16:54;;;;;;;38.30;16.63;;;;;;;4.41;85.27;96049.81;5132236;27;20489;-73
2021/11/22 04:19:21;;;;;;;37.13;15.82;;;;;;;4.45;84.84;96051.66;5130955;27;20074;-73
2021/11/22 04:21:48;;;;;;;38.45;16.67;;;;;;;4.45;84.74;96057.06;5132039;27;20070;-73
2021/11/22 04:24:15;;;;;;;36.95;16.65;;;;;;;4.44;84.96;96066.25;5130907;27;20067;-73
2021/11/22 04:26:41;;;;;;;36.30;17.13;;;;;;;4.44;85.15;96066.25;5131931;27;20405;-73
2021/11/22 04:29:08;;;;;;;39.40;17.75;;;;;;;4.44;84.75;96065.44;5130844;27;20046;-72
2021/11/22 04:31:35;;;;;;;35.17;16.67;;;;;;;4.40;84.70;96076.00;5131220;27;20119;-73
2021/11/22 04:34:01;;;;;;;42.45;18.52;;;;;;;4.37;84.97;96078.44;5131268;27;20053;-72
2021/11/22 04:36:27;;;;;;;40.72;18.17;;;;;;;4.39;85.47;96073.59;5130904;27;20063;-73
2021/11/22 04:38:55;;;;;;;41.08;18.20;;;;;;;4.41;85.46;96077.59;5131385;27;20047;-73
2021/11/22 04:41:24;;;;;;;39.63;18.10;;;;;;;4.41;84.98;96077.59;5129745;27;20051;-72
2021/11/22 04:43:52;;;;;;;40.30;16.95;;;;;;;4.36;85.08;96091.13;5131597;27;20946;-72
2021/11/22 04:46:18;;;;;;;45.05;17.80;;;;;;;4.34;85.51;96087.91;5130619;27;20047;-72
2021/11/22 04:48:45;;;;;;;45.53;19.08;;;;;;;4.31;85.52;96091.16;5131338;27;20058;-72
2021/11/22 04:51:12;;;;;;;40.97;18.48;;;;;;;4.28;85.66;96089.06;5130503;27;20058;-72
2021/11/22 04:53:39;;;;;;;43.58;19.80;;;;;;;4.29;85.91;96093.34;5130783;27;20062;-72
2021/11/22 04:56:07;;;;;;;41.95;18.67;;;;;;;4.24;86.12;96088.00;5130462;27;20108;-72
2021/11/22 04:58:33;;;;;;;40.35;17.90;;;;;;;4.29;86.26;96092.56;5130527;27;20134;-72
2021/11/22 05:01:00;;;;;;;37.33;16.70;;;;;;;4.28;85.80;96089.06;5130623;27;20043;-73
2021/11/22 05:03:26;;;;;;;36.28;16.02;;;;;;;4.31;85.98;96090.38;5129378;27;20804;-73
2021/11/22 05:05:53;;;;;;;37.20;16.75;;;;;;;4.36;85.78;96101.91;5131505;27;20043;-73
2021/11/22 05:08:19;;;;;;;43.88;17.80;;;;;;;4.40;85.17;96102.16;5129650;27;20652;-72
2021/11/22 05:10:45;;;;;;;39.67;17.70;;;;;;;4.41;84.97;96109.94;5130354;27;20807;-72
2021/11/22 05:13:16;;;;;;;41.03;18.38;;;;;;;4.41;84.85;96114.53;5129620;27;20043;-72
2021/11/22 05:15:44;;;;;;;44.60;18.30;;;;;;;4.39;85.00;96112.13;5130830;27;20047;-73
2021/11/22 05:18:11;;;;;;;38.75;18.10;;;;;;;4.38;85.16;96110.50;5130262;27;20076;-72
2021/11/22 05:20:39;;;;;;;40.13;18.10;;;;;;;4.38;85.08;96121.28;5130257;27;20046;-72
2021/11/22 05:23:05;;;;;;;41.30;18.30;;;;;;;4.31;85.11;96115.44;5130367;27;20100;-73
2021/11/22 05:25:32;;;;;;;37.63;17.83;;;;;;;4.29;85.49;96123.00;5130235;27;20047;-72
2021/11/22 05:27:59;;;;;;;42.15;17.85;;;;;;;4.31;85.60;96120.00;5130957;27;20068;-73
2021/11/22 05:30:27;;;;;;;37.75;17.30;;;;;;;4.33;85.49;96128.59;5129504;27;20043;-72
2021/11/22 05:32:55;;;;;;;42.40;18.23;;;;;;;4.32;85.63;96124.31;5130494;27;20050;-73
2021/11/22 05:35:22;;;;;;;40.92;18.45;;;;;;;4.30;85.74;96124.59;5129419;27;20531;-72
2021/11/22 05:37:49;;;;;;;39.83;18.52;;;;;;;4.32;86.01;96122.41;5130557;27;20054;-75
2021/11/22 05:40:15;;;;;;;46.42;20.08;;;;;;;4.32;85.65;96127.00;5129394;27;20051;-72
2021/11/22 05:42:42;;;;;;;43.13;18.33;;;;;;;4.29;85.88;96123.00;5129369;27;20047;-72
2021/11/22 05:45:09;;;;;;;39.63;18.58;;;;;;;4.32;85.61;96125.13;5129774;27;20051;-72
2021/11/22 05:47:37;;;;;;;42.85;18.92;;;;;;;4.31;85.64;96126.22;5129404;27;20417;-73
2021/11/22 05:50:06;;;;;;;44.05;19.05;;;;;;;4.30;85.72;96129.19;5129968;27;20091;-72
2021/11/22 05:52:34;;;;;;;41.42;17.65;;;;;;;4.31;85.83;96126.22;5128478;27;20054;-73
2021/11/22 05:55:00;;;;;;;42.00;18.23;;;;;;;4.33;85.58;96123.22;5130352;27;20090;-73
2021/11/22 05:57:27;;;;;;;41.22;18.38;;;;;;;4.31;85.73;96128.91;5128868;27;20045;-72
2021/11/22 05:59:54;;;;;;;43.95;18.70;;;;;;;4.29;85.82;96133.78;5129908;27;20043;-73
2021/11/22 06:02:20;;;;;;;44.90;18.05;;;;;;;4.31;86.09;96137.00;5128859;27;20051;-73
2021/11/22 06:04:48;;;;;;;40.95;18.77;;;;;;;4.31;86.20;96142.38;5129722;27;20130;-73
2021/11/22 06:07:15;;;;;;;41.20;18.52;;;;;;;4.29;86.14;96144.56;5129070;27;20047;-74
2021/11/22 06:09:41;;;;;;;46.67;19.17;;;;;;;4.30;86.45;96143.47;5129333;27;20047;-73
2021/11/22 06:12:08;;;;;;;45.65;18.80;;;;;;;4.30;86.29;96153.44;5128240;27;20051;-72
2021/11/22 06:14:35;;;;;;;45.55;18.80;;;;;;;4.31;86.56;96146.97;5128562;27;20047;-75
2021/11/22 06:17:01;;;;;;;38.60;18.60;;;;;;;4.29;86.32;96160.75;5129674;27;20062;-75
2021/11/22 06:19:28;;;;;;;47.03;19.73;;;;;;;4.24;86.71;96159.97;5128734;27;20039;-75
2021/11/22 06:21:56;;;;;;;44.85;18.83;;;;;;;4.24;86.87;96160.78;5128721;27;20043;-72
2021/11/22 06:24:23;;;;;;;45.38;18.92;;;;;;;4.26;86.58;96166.69;5128208;27;20509;-72
2021/11/22 06:26:53;;;;;;;41.97;18.13;;;;;;;4.26;86.35;96172.06;5129197;27;20114;-72
2021/11/22 06:29:21;;;;;;;42.40;20.17;;;;;;;4.24;86.45;96179.66;5128676;27;20138;-73
2021/11/22 06:31:48;;;;;;;43.97;17.75;;;;;;;4.21;86.56;96177.50;5128725;27;20130;-72
2021/11/22 06:34:14;;;;;;;43.28;19.50;;;;;;;4.17;86.53;96179.94;5128558;27;20452;-73
2021/11/22 06:36:41;;;;;;;43.65;18.55;;;;;;;4.16;86.91;96183.72;5128815;27;20047;-73
2021/11/22 06:39:09;;;;;;;43.47;18.60;;;;;;;4.18;86.82;96183.47;5129205;27;20047;-73
2021/11/22 06:41:35;;;;;;;40.22;17.63;;;;;;;4.17;86.69;96184.53;5140239;27;20043;-74
2021/11/22 06:44:02;;;;;;;42.78;17.77;;;;;;;4.17;86.90;96189.91;5148176;27;20046;-71
2021/11/22 06:46:28;;;;;;;41.15;18.23;;;;;;;4.16;86.68;96185.63;5147834;27;20042;-73
2021/11/22 06:48:55;;;;;;;40.72;18.38;;;;;;;4.16;86.39;96188.31;5149680;27;20581;-74
2021/11/22 06:51:21;;;;;;;41.20;17.75;;;;;;;4.14;86.12;96194.00;5148514;27;20042;-73
2021/11/22 06:53:48;;;;;;;42.17;17.48;;;;;;;4.12;86.55;96192.66;5148984;27;20059;-74
2021/11/22 06:56:16;;;;;;;39.15;18.25;;;;;;;4.11;86.55;96194.53;5148904;27;20058;-73
2021/11/22 06:58:42;;;;;;;43.10;18.13;;;;;;;4.09;86.37;96204.00;5148869;27;20042;-73
2021/11/22 07:01:09;;;;;;;42.72;18.42;;;;;;;4.07;86.37;96203.47;5149314;27;20050;-74
2021/11/22 07:03:35;;;;;;;46.45;19.20;;;;;;;4.08;86.70;96205.09;5148559;27;20050;-73
2021/11/22 07:06:03;;;;;;;45.65;20.50;;;;;;;4.05;86.95;96208.34;5149325;27;20053;-72
2021/11/22 07:08:31;;;;;;;41.17;18.70;;;;;;;4.09;87.14;96214.78;5148108;27;20130;-73
2021/11/22 07:10:58;;;;;;;49.03;20.33;;;;;;;4.09;87.13;96215.59;5148054;27;20581;-73
2021/11/22 07:13:25;;;;;;;50.78;20.35;;;;;;;4.11;87.01;96224.19;5148127;27;20047;-73
2021/11/22 07:15:52;;;;;;;49.92;20.25;;;;;;;4.14;87.57;96226.34;5148955;27;20050;-73
2021/11/22 07:18:19;;;;;;;48.13;20.70;;;;;;;4.21;87.51;96227.91;5148925;27;20075;-73
2021/11/22 07:20:47;;;;;;;47.58;20.08;;;;;;;4.26;87.62;96235.97;5148757;27;20039;-73
2021/11/22 07:23:14;;;;;;;52.13;21.92;;;;;;;4.25;87.33;96234.34;5148513;27;20494;-73
2021/11/22 07:25:41;;;;;;;51.97;21.40;;;;;;;4.24;87.25;96249.72;5148343;27;20043;-73
2021/11/22 07:28:07;;;;;;;52.70;21.67;;;;;;;4.29;87.47;96241.59;5149164;27;20070;-72
2021/11/22 07:30:36;;;;;;;47.22;20.80;;;;;;;4.32;87.55;96251.81;5148274;27;20065;-73
2021/11/22 07:33:03;;;;;;;47.22;20.60;;;;;;;4.36;87.75;96255.56;5148474;27;20051;-73
2021/11/22 07:35:30;;;;;;;49.15;20.27;;;;;;;4.38;87.66;96261.47;5148310;27;20045;-73
2021/11/22 07:37:57;;;;;;;51.13;19.63;;;;;;;4.37;87.81;96267.94;5148815;27;20051;-74
2021/11/22 07:40:23;;;;;;;43.70;19.05;;;;;;;4.43;87.93;96268.72;5144332;27;20047;-73
2021/11/22 07:42:50;;;;;;;54.58;21.65;;;;;;;4.47;87.64;96264.38;5127780;27;20169;-73
2021/11/22 07:45:17;;;;;;;50.63;20.23;;;;;;;4.47;87.51;96271.66;5127328;27;20162;-73
2021/11/22 07:47:45;;;;;;;50.55;21.45;;;;;;;4.50;87.77;96273.81;5127630;27;20050;-73
2021/11/22 07:50:11;;;;;;;49.63;20.25;;;;;;;4.48;87.70;96276.78;5128161;28;20050;-73
2021/11/22 07:52:38;;;;;;;52.28;20.73;;;;;;;4.53;87.83;96278.63;5126960;28;20051;-73
2021/11/22 07:55:05;;;;;;;45.20;20.08;;;;;;;4.55;87.43;96282.66;5128032;28;20050;-73
2021/11/22 07:57:32;;;;;;;48.08;19.85;;;;;;;4.54;87.39;96285.63;5127697;28;20058;-74
2021/11/22 07:59:58;;;;;;;46.65;20.35;;;;;;;4.52;87.22;96280.53;5127930;28;20047;-73
2021/11/22 08:02:25;;;;;;;56.63;21.77;;;;;;;4.51;87.42;96286.19;5127085;28;20043;-74
2021/11/22 08:04:53;;;;;;;50.30;20.88;;;;;;;4.54;87.71;96285.63;5127689;28;20051;-73
2021/11/22 08:07:21;;;;;;;50.85;21.02;;;;;;;4.58;88.08;96292.88;5127750;28;20043;-73
2021/11/22 08:09:56;;;;;;;50.45;19.70;;;;;;;4.64;87.51;96307.13;5127659;28;20066;-73
2021/11/22 08:12:27;;;;;;;42.75;17.73;;;;;;;4.65;87.54;96304.16;5147726;27;20046;-73
2021/11/22 08:14:54;;;;;;;43.55;19.13;;;;;;;4.60;87.25;96306.09;5148023;27;20459;-73
2021/11/22 08:17:21;;;;;;;45.30;19.55;;;;;;;4.61;87.68;96311.22;5148349;27;20860;-73
2021/11/22 08:19:48;;;;;;;46.25;19.40;;;;;;;4.61;87.44;96313.09;5148098;27;20579;-73
2021/11/22 08:22:16;;;;;;;41.40;18.05;;;;;;;4.66;87.73;96319.25;5148238;27;20043;-75
2021/11/22 08:24:45;;;;;;;47.05;19.45;;;;;;;4.67;87.35;96317.38;5148888;27;20051;-73
2021/11/22 08:27:11;;;;;;;47.08;19.38;;;;;;;4.65;87.66;96320.34;5147810;27;20039;-73
2021/11/22 08:29:38;;;;;;;51.15;20.90;;;;;;;4.60;87.47;96322.28;5148395;27;20058;-73
2021/11/22 08:32:05;;;;;;;56.22;20.02;;;;;;;4.69;87.58;96326.78;5147085;27;20055;-72
2021/11/22 08:34:31;;;;;;;47.42;19.90;;;;;;;4.72;87.58;96326.22;5148976;27;20054;-73
2021/11/22 08:36:58;;;;;;;54.05;20.98;;;;;;;4.75;87.72;96330.28;5147587;27;20050;-73
2021/11/22 08:39:25;;;;;;;53.28;21.35;;;;;;;4.76;87.85;96326.47;5148295;27;20054;-73
2021/11/22 08:41:52;;;;;;;50.42;20.17;;;;;;;4.80;88.00;96329.41;5146622;27;20050;-74
2021/11/22 08:44:18;;;;;;;51.30;21.05;;;;;;;4.84;88.12;96333.94;5148225;27;20047;-73
2021/11/22 08:46:47;;;;;;;51.15;20.98;;;;;;;4.87;88.13;96325.31;5147879;27;20460;-73
2021/11/22 08:49:14;;;;;;;52.22;21.38;;;;;;;4.92;87.72;96330.66;5147428;27;20050;-73
2021/11/22 08:51:41;;;;;;;54.78;21.73;;;;;;;4.89;87.74;96339.31;5148005;27;20057;-73
2021/11/22 08:54:07;;;;;;;52.13;21.33;;;;;;;4.87;87.86;96348.78;5147335;27;20047;-73
2021/11/22 08:56:36;;;;;;;51.58;20.38;;;;;;;4.88;88.16;96351.19;5149965;27;20050;-73
2021/11/22 08:59:03;;;;;;;59.60;21.55;;;;;;;4.95;88.00;96350.88;5150562;27;20043;-72
2021/11/22 09:01:31;;;;;;;53.05;21.05;;;;;;;5.01;87.84;96354.34;5152421;27;20055;-72
2021/11/22 09:03:58;;;;;;;55.95;21.77;;;;;;;5.06;87.49;96357.78;5151264;27;20428;-73
2021/11/22 09:06:24;;;;;;;52.17;20.42;;;;;;;5.06;87.50;96359.69;5151735;27;20042;-73
2021/11/22 09:08:51;;;;;;;52.67;20.00;;;;;;;5.06;87.91;96362.38;5151251;27;20610;-73
2021/11/22 09:11:18;;;;;;;45.55;19.52;;;;;;;5.10;88.19;96364.25;5149755;27;20051;-73
2021/11/22 09:13:46;;;;;;;49.30;20.33;;;;;;;5.12;88.23;96372.88;5151270;27;20050;-73
2021/11/22 09:16:13;;;;;;;47.45;19.77;;;;;;;5.08;87.46;96381.81;5150709;27;20074;-73
2021/11/22 09:18:39;;;;;;;47.60;20.88;;;;;;;5.11;87.95;96375.84;5151770;27;20042;-73
2021/11/22 09:21:06;;;;;;;50.42;19.77;;;;;;;5.14;87.68;96388.78;5150529;27;20058;-74
2021/11/22 09:23:33;;;;;;;46.20;20.25;;;;;;;5.18;87.70;96381.75;5151755;27;20062;-73
2021/11/22 09:26:00;;;;;;;46.45;18.88;;;;;;;5.16;87.38;96381.19;5150854;27;20047;-74
2021/11/22 09:28:26;;;;;;;46.53;19.00;;;;;;;5.15;86.83;96383.09;5151644;27;20046;-73
2021/11/22 09:30:54;;;;;;;45.45;18.55;;;;;;;5.20;87.17;96380.34;5150442;27;20049;-73
2021/11/22 09:33:20;;;;;;;42.30;18.52;;;;;;;5.20;86.32;96387.66;5150703;27;20047;-73
2021/11/22 09:35:47;;;;;;;43.20;18.58;;;;;;;5.29;86.92;96388.66;5150761;27;20047;-73
2021/11/22 09:38:13;;;;;;;45.65;18.23;;;;;;;5.32;87.01;96392.69;5150303;27;20046;-73
2021/11/22 09:40:40;;;;;;;43.55;19.23;;;;;;;5.36;87.56;96394.53;5144318;27;20053;-73
2021/11/22 09:43:07;;;;;;;41.88;18.63;;;;;;;5.44;87.45;96390.44;5129399;27;20046;-73
2021/11/22 09:45:34;;;;;;;44.08;19.90;;;;;;;5.49;87.37;96393.88;5130817;27;20776;-73
2021/11/22 09:48:03;;;;;;;39.45;18.20;;;;;;;5.45;86.76;96397.44;5129488;27;20073;-73
2021/11/22 09:50:31;;;;;;;41.42;18.88;;;;;;;5.47;86.68;96396.06;5130516;27;20061;-73
2021/11/22 09:52:59;;;;;;;39.53;18.35;;;;;;;5.56;86.20;96404.34;5129299;27;20047;-73
2021/11/22 09:55:29;;;;;;;36.13;18.48;;;;;;;5.59;87.01;96403.78;5129918;27;20043;-73
2021/11/22 09:57:56;;;;;;;37.50;18.33;;;;;;;5.60;87.04;96396.50;5129708;27;20141;-72
2021/11/22 10:00:23;;;;;;;42.63;18.77;;;;;;;5.64;86.60;96398.34;5129170;27;20047;-73
2021/11/22 10:02:53;;;;;;;39.55;16.67;;;;;;;5.68;86.75;96393.97;5130010;27;20409;-73
2021/11/22 10:05:24;;;;;;;32.50;15.55;;;;;;;5.61;84.31;96400.81;5128939;27;20051;-73
2021/11/22 10:08:03;;;;;;;36.15;16.13;;;;;;;5.56;84.48;96401.66;5129259;27;20058;-73
2021/11/22 10:10:36;;;;;;;35.45;16.17;;;;;;;5.62;84.51;96402.41;5132913;27;20126;-74
2021/11/22 10:13:19;;;;;;;39.08;16.98;;;;;;;5.65;84.07;96393.75;5150277;27;20118;-73
2021/11/22 10:15:45;;;;;;;37.13;17.65;;;;;;;5.64;85.12;96406.44;5150001;27;20050;-73
2021/11/22 10:18:17;;;;;;;31.80;14.98;;;;;;;5.66;84.76;96408.84;5150190;27;20043;-73
2021/11/22 10:20:45;;;;;;;30.80;15.02;;;;;;;5.71;84.02;96411.50;5150806;27;20046;-73
2021/11/22 10:23:12;;;;;;;31.27;15.80;;;;;;;5.76;83.96;96408.75;5149581;27;20042;-73
2021/11/22 10:25:41;;;;;;;32.33;15.88;;;;;;;5.83;84.16;96403.81;5150483;27;20524;-73
2021/11/22 10:28:14;;;;;;;30.65;15.48;;;;;;;5.88;83.27;96395.66;5149027;27;20081;-72
2021/11/22 10:30:43;;;;;;;28.33;15.13;;;;;;;5.95;83.82;96403.44;5150290;27;20496;-73
2021/11/22 10:33:11;;;;;;;29.65;14.85;;;;;;;5.99;83.50;96410.69;5149311;27;20046;-73
2021/11/22 10:35:39;;;;;;;31.77;15.80;;;;;;;5.99;83.06;96412.59;5149933;27;20050;-74
2021/11/22 10:38:12;;;;;;;29.52;14.30;;;;;;;5.96;83.03;96413.19;5149539;27;20129;-73
2021/11/22 10:40:40;;;;;;;;;;;;;;;5.91;81.61;96416.75;5143132;27;20051;-73
2021/11/22 10:43:08;;;;;;;31.67;15.35;;;;;;;5.86;81.88;96424.88;5128894;27;19976;-72
2021/11/22 10:45:38;;;;;;;33.05;16.80;;;;;;;5.89;81.85;96418.88;5128222;27;20410;-73
2021/11/22 10:48:26;;;;;;;33.35;16.92;;;;;;;5.92;82.10;96423.75;5128963;27;20055;-73
2021/11/22 10:51:06;;;;;;;29.17;14.95;;;;;;;5.90;81.91;96422.38;5123172;27;20047;-73
2021/11/22 10:53:38;;;;;;;32.17;16.17;;;;;;;5.89;82.62;96408.06;5128553;27;20043;-73
2021/11/22 10:56:06;;;;;;;35.05;17.95;;;;;;;5.89;83.05;96405.38;5128353;27;20054;-72
2021/11/22 10:58:45;;;;;;;34.35;16.65;;;;;;;5.95;82.52;96404.28;5128761;27;20047;-73
2021/11/22 11:01:19;;;;;;;28.75;14.93;;;;;;;5.99;82.42;96404.47;5128731;27;20047;-72
2021/11/22 11:03:50;;;;;;;27.13;14.15;;;;;;;5.99;82.58;96416.09;5128150;27;20484;-74
2021/11/22 11:06:17;;;;;;;29.38;15.00;;;;;;;5.97;82.52;96415.59;5128702;27;20517;-74
2021/11/22 11:08:45;;;;;;;29.88;15.65;;;;;;;5.99;83.09;96418.81;5128114;27;20604;-74
2021/11/22 11:11:14;;;;;;;29.75;14.93;;;;;;;6.01;82.85;96415.84;5137711;27;20043;-74
2021/11/22 11:13:46;;;;;;;30.83;15.52;;;;;;;6.04;83.03;96417.16;5149260;27;20039;-74
2021/11/22 11:16:14;;;;;;;30.77;15.65;;;;;;;6.04;83.55;96419.84;5148635;27;20054;-73
2021/11/22 11:18:41;;;;;;;30.27;16.02;;;;;;;5.97;83.35;96425.59;5149186;27;20049;-74
2021/11/22 11:21:08;;;;;;;35.33;17.40;;;;;;;5.95;84.17;96423.19;5148090;27;20053;-73
2021/11/22 11:23:34;;;;;;;31.00;15.93;;;;;;;6.00;84.59;96428.53;5149494;27;20604;-74
2021/11/22 11:26:03;;;;;;;29.23;15.50;;;;;;;6.03;84.03;96429.06;5133091;27;20047;-75
2021/11/22 11:28:30;;;;;;;28.90;15.15;;;;;;;6.04;83.44;96422.56;5128478;27;20043;-74